Time;durP1;ratioP1;P1;durP2;ratioP2;P2;SDS_P1;SDS_P2;PMS_P1;PMS_P2;Temp;Humidity;BMP_temperature;BMP_pressure;BME280_temperature;BME280_humidity;BME280_pressure;Samples;Min_cycle;Max_cycle;Signal;HPM_P1;HPM_P2
2021/12/19 00:00:12;;;;;;;16.00;6.95;;;6.90;99.90;;;;;;4967145;28;20055;-76
2021/12/19 00:10:29;;;;;;;13.15;6.47;;;6.80;99.90;;;;;;4957644;28;20651;-75
2021/12/19 00:12:56;;;;;;;15.65;6.53;;;6.90;99.90;;;;;;4951587;28;20149;-73
2021/12/19 00:15:22;;;;;;;15.90;7.40;;;6.80;99.90;;;;;;4965931;28;20430;-75
2021/12/19 00:17:48;;;;;;;18.70;7.80;;;6.90;99.90;;;;;;4966940;28;20125;-74
2021/12/19 00:20:14;;;;;;;17.52;7.50;;;6.90;99.90;;;;;;4960899;28;20174;-75
2021/12/19 00:22:40;;;;;;;22.45;8.68;;;6.90;99.90;;;;;;4958903;28;20129;-75
2021/12/19 00:25:06;;;;;;;18.63;8.18;;;6.90;99.90;;;;;;4954276;28;20056;-74
2021/12/19 00:27:32;;;;;;;19.77;8.70;;;6.90;99.90;;;;;;4953588;28;20051;-74
2021/12/19 00:29:58;;;;;;;20.30;8.95;;;6.90;99.90;;;;;;4969621;28;20038;-75
2021/12/19 00:32:24;;;;;;;22.65;8.40;;;6.90;99.90;;;;;;4953963;28;20051;-75
2021/12/19 00:34:51;;;;;;;26.73;9.20;;;6.90;99.90;;;;;;4949543;29;20044;-74
2021/12/19 00:37:21;;;;;;;24.15;9.18;;;6.90;99.90;;;;;;4933993;29;20058;-74
2021/12/19 00:39:47;;;;;;;20.50;8.20;;;6.90;99.90;;;;;;4954987;28;20051;-74
2021/12/19 00:42:30;;;;;;;16.02;7.50;;;6.90;99.90;;;;;;4971506;28;20130;-74
2021/12/19 00:45:00;;;;;;;14.82;7.20;;;6.90;99.90;;;;;;4949097;28;20148;-74
2021/12/19 00:47:26;;;;;;;23.60;8.32;;;6.90;99.90;;;;;;4957246;28;20214;-74
2021/12/19 00:49:51;;;;;;;15.20;7.15;;;6.90;99.90;;;;;;4973980;28;20129;-74
2021/12/19 00:52:17;;;;;;;16.85;6.85;;;6.90;99.90;;;;;;4924423;28;20930;-74
2021/12/19 00:54:43;;;;;;;19.27;7.45;;;6.90;99.90;;;;;;4938484;29;20166;-74
2021/12/19 00:57:08;;;;;;;15.57;7.30;;;6.90;99.90;;;;;;4954585;28;20412;-74
2021/12/19 00:59:34;;;;;;;14.00;6.75;;;6.90;99.90;;;;;;4972025;28;20039;-74
2021/12/19 01:02:00;;;;;;;17.08;6.97;;;6.90;99.90;;;;;;4973385;28;20106;-75
2021/12/19 01:04:25;;;;;;;21.30;6.72;;;7.00;99.90;;;;;;4957373;28;20058;-74
2021/12/19 01:06:51;;;;;;;17.73;7.10;;;6.90;99.90;;;;;;4972794;28;20093;-74
2021/12/19 01:09:17;;;;;;;16.73;6.53;;;6.90;99.90;;;;;;4953311;29;20059;-74
2021/12/19 01:11:47;;;;;;;19.70;7.20;;;6.90;99.90;;;;;;4953633;29;20051;-74
2021/12/19 01:14:15;;;;;;;19.45;7.30;;;6.90;99.90;;;;;;4937425;29;20047;-74
2021/12/19 01:16:42;;;;;;;16.25;7.00;;;6.90;99.90;;;;;;4958966;28;20119;-75
2021/12/19 01:19:08;;;;;;;17.48;7.18;;;6.90;99.90;;;;;;4937449;29;20054;-74
2021/12/19 01:21:34;;;;;;;16.98;6.57;;;6.90;99.90;;;;;;4953721;29;20058;-76
2021/12/19 01:23:59;;;;;;;20.58;7.00;;;6.90;99.90;;;;;;4968020;28;20050;-74
2021/12/19 01:26:25;;;;;;;18.77;6.68;;;6.90;99.90;;;;;;4940619;28;20043;-75
2021/12/19 01:28:51;;;;;;;16.08;6.85;;;6.90;99.90;;;;;;4973329;28;20051;-74
2021/12/19 01:31:16;;;;;;;15.68;6.65;;;6.90;99.90;;;;;;4940754;28;20042;-74
2021/12/19 01:33:42;;;;;;;19.08;7.68;;;6.90;99.90;;;;;;4972382;28;20113;-76
2021/12/19 01:36:08;;;;;;;20.15;7.80;;;6.90;99.90;;;;;;4940151;28;20058;-74
2021/12/19 01:38:34;;;;;;;17.42;7.15;;;6.90;99.90;;;;;;4973229;28;20045;-75
2021/12/19 01:41:00;;;;;;;;;;;6.90;99.90;;;;;;4973102;28;20131;-74
2021/12/19 01:43:26;;;;;;;21.42;7.90;;;7.00;99.90;;;;;;4973822;28;19930;-74
2021/12/19 01:45:53;;;;;;;19.08;7.60;;;7.00;99.90;;;;;;4955765;28;20133;-80
2021/12/19 01:48:21;;;;;;;23.17;8.20;;;7.00;99.90;;;;;;4930796;28;20053;-74
2021/12/19 01:50:47;;;;;;;19.27;7.93;;;7.00;99.90;;;;;;4972834;28;20126;-74
2021/12/19 01:53:13;;;;;;;18.35;7.95;;;7.00;99.90;;;;;;4955164;28;20086;-74
2021/12/19 01:55:41;;;;;;;17.52;7.60;;;7.00;99.90;;;;;;4955841;28;20113;-76
2021/12/19 01:58:07;;;;;;;19.38;6.53;;;7.00;99.90;;;;;;4973191;28;20047;-74
2021/12/19 02:00:40;;;;;;;18.27;7.03;;;7.00;99.90;;;;;;4956418;28;20724;-74
2021/12/19 02:03:09;;;;;;;15.85;7.40;;;7.00;99.90;;;;;;4955301;28;20054;-74
2021/12/19 02:05:35;;;;;;;13.02;5.57;;;7.00;99.90;;;;;;4956182;28;20477;-74
2021/12/19 02:08:03;;;;;;;9.95;4.20;;;7.00;99.90;;;;;;4971367;28;20812;-76
2021/12/19 02:10:30;;;;;;;9.38;3.70;;;7.00;99.90;;;;;;4972514;28;20057;-78
2021/12/19 02:12:58;;;;;;;11.95;4.95;;;7.00;99.90;;;;;;4972439;28;20086;-74
2021/12/19 02:15:26;;;;;;;10.05;4.38;;;7.00;99.90;;;;;;4972905;28;20062;-74
2021/12/19 02:17:56;;;;;;;10.52;4.13;;;7.00;99.90;;;;;;4955045;28;20063;-74
2021/12/19 02:20:23;;;;;;;9.65;3.78;;;7.00;99.90;;;;;;4955976;28;20095;-74
2021/12/19 02:22:49;;;;;;;7.63;3.10;;;7.00;99.90;;;;;;4953991;28;20055;-74
2021/12/19 02:25:15;;;;;;;;;;;7.00;99.90;;;;;;4956389;28;20062;-74
2021/12/19 02:27:42;;;;;;;6.43;2.85;;;7.00;99.90;;;;;;4972502;28;19980;-74
2021/12/19 02:30:09;;;;;;;4.97;2.28;;;7.00;99.90;;;;;;4955181;28;20552;-74
2021/12/19 02:32:37;;;;;;;7.47;2.50;;;7.00;99.90;;;;;;4951512;29;20043;-75
2021/12/19 02:35:13;;;;;;;8.45;2.25;;;7.00;99.90;;;;;;4967369;28;20055;-74
2021/12/19 02:48:13;;;;;;;5.45;2.20;;;6.90;99.90;;;;;;4971658;28;20051;-74
2021/12/19 02:50:51;;;;;;;3.78;1.80;;;6.90;99.90;;;;;;4971239;28;20134;-74
2021/12/19 02:53:31;;;;;;;2.65;1.50;;;6.90;99.90;;;;;;4971332;28;20047;-73
2021/12/19 02:55:58;;;;;;;5.97;1.65;;;6.90;99.90;;;;;;4954593;28;20058;-74
2021/12/19 02:58:24;;;;;;;4.35;1.40;;;6.90;99.90;;;;;;4972439;28;20039;-74
2021/12/19 03:00:50;;;;;;;5.47;1.38;;;6.80;99.90;;;;;;4971438;28;20366;-80
2021/12/19 03:03:16;;;;;;;2.58;1.33;;;6.80;99.90;;;;;;4971213;28;20484;-74
2021/12/19 03:05:42;;;;;;;4.70;1.45;;;6.80;99.90;;;;;;4954984;28;20081;-74
2021/12/19 03:08:09;;;;;;;2.42;1.23;;;6.80;99.90;;;;;;4953342;28;20054;-74
2021/12/19 03:18:33;;;;;;;3.38;1.60;;;6.80;99.90;;;;;;4971849;28;20135;-75
2021/12/19 03:20:59;;;;;;;2.88;1.33;;;6.80;99.90;;;;;;4970672;28;20047;-74
2021/12/19 03:23:25;;;;;;;2.50;1.58;;;6.80;99.90;;;;;;4954394;28;20070;-75
2021/12/19 03:25:51;;;;;;;4.38;1.85;;;6.80;99.90;;;;;;4922670;28;20477;-81
2021/12/19 03:28:17;;;;;;;3.47;1.67;;;6.80;99.90;;;;;;4953888;28;20047;-75
2021/12/19 03:30:45;;;;;;;4.00;1.80;;;6.80;99.90;;;;;;4954677;28;20053;-76
2021/12/19 03:33:12;;;;;;;4.93;2.20;;;6.80;99.90;;;;;;4954059;28;20065;-74
2021/12/19 03:35:39;;;;;;;3.85;1.70;;;6.70;99.90;;;;;;4954473;28;20082;-77
2021/12/19 03:38:08;;;;;;;4.35;2.08;;;6.70;99.90;;;;;;4970237;28;20046;-74
2021/12/19 03:40:36;;;;;;;3.47;1.73;;;6.70;99.90;;;;;;4971474;28;20464;-76
2021/12/19 03:43:05;;;;;;;3.72;1.70;;;6.70;99.90;;;;;;4938346;28;20047;-74
2021/12/19 03:45:31;;;;;;;4.82;1.70;;;6.70;99.90;;;;;;4954874;28;20093;-76
2021/12/19 03:47:56;;;;;;;3.40;1.70;;;6.70;99.90;;;;;;4970952;28;20082;-75
2021/12/19 03:50:23;;;;;;;7.68;1.83;;;6.90;99.90;;;;;;4971269;28;20046;-74
2021/12/19 03:52:54;;;;;;;4.63;2.10;;;6.70;99.90;;;;;;4970248;28;20053;-74
2021/12/19 03:55:25;;;;;;;4.60;1.92;;;6.70;99.90;;;;;;4954370;28;20055;-75
2021/12/19 03:57:51;;;;;;;5.10;1.77;;;6.70;99.90;;;;;;4935226;29;20051;-74
2021/12/19 04:00:24;;;;;;;6.07;1.95;;;6.70;99.90;;;;;;4935029;29;20694;-74
2021/12/19 04:02:59;;;;;;;3.67;2.13;;;6.70;99.90;;;;;;4935211;29;20447;-76
2021/12/19 04:05:25;;;;;;;4.78;1.90;;;6.70;99.90;;;;;;4935629;29;20055;-74
2021/12/19 04:07:52;;;;;;;;;;;6.80;99.90;;;;;;4951455;29;20147;-75
2021/12/19 04:10:18;;;;;;;3.03;1.70;;;6.80;99.90;;;;;;4961710;28;20359;-74
2021/12/19 04:12:44;;;;;;;7.03;2.10;;;6.70;99.90;;;;;;4972170;28;20054;-74
2021/12/19 04:15:11;;;;;;;5.30;2.00;;;6.70;99.90;;;;;;4972589;28;20062;-75
2021/12/19 04:17:38;;;;;;;6.10;2.47;;;6.70;99.90;;;;;;4957587;28;20050;-74
2021/12/19 04:20:04;;;;;;;4.90;2.28;;;6.70;99.90;;;;;;4974600;28;20121;-75
2021/12/19 04:22:30;;;;;;;9.57;2.80;;;6.70;99.90;;;;;;4973717;28;20059;-74
2021/12/19 04:24:56;;;;;;;5.32;2.15;;;6.70;99.90;;;;;;4957874;28;20097;-79
2021/12/19 04:27:22;;;;;;;5.07;2.30;;;6.70;99.90;;;;;;4974858;28;20082;-73
2021/12/19 04:29:50;;;;;;;5.68;2.35;;;6.70;99.90;;;;;;4957897;28;20047;-74
2021/12/19 04:32:17;;;;;;;6.75;2.38;;;6.70;99.90;;;;;;4941285;28;20149;-74
2021/12/19 04:34:43;;;;;;;6.85;2.72;;;6.70;99.90;;;;;;4974884;28;20057;-74
2021/12/19 04:37:31;;;;;;;8.50;2.60;;;6.70;99.90;;;;;;4972945;28;20058;-75
2021/12/19 04:40:07;;;;;;;10.07;2.60;;;6.70;99.90;;;;;;4974454;28;20047;-74
2021/12/19 04:53:37;;;;;;;2.65;1.30;;;6.60;99.90;;;;;;4955295;28;20134;-75
2021/12/19 05:01:20;;;;;;;1.83;1.10;;;6.50;99.90;;;;;;4974299;28;20059;-75
2021/12/19 05:03:56;;;;;;;2.85;1.20;;;6.50;99.90;;;;;;4957458;28;20054;-74
2021/12/19 05:14:39;;;;;;;2.67;1.50;;;6.40;99.90;;;;;;4973774;28;20075;-74
2021/12/19 05:17:08;;;;;;;2.75;1.50;;;6.40;99.90;;;;;;4936947;29;20086;-75
2021/12/19 05:19:49;;;;;;;3.67;1.60;;;6.40;99.90;;;;;;4970787;28;20058;-74
2021/12/19 05:22:15;;;;;;;4.20;1.50;;;6.40;99.90;;;;;;4939141;28;20054;-75
2021/12/19 05:24:45;;;;;;;3.58;1.38;;;6.40;99.90;;;;;;4956739;28;20062;-74
2021/12/19 05:27:11;;;;;;;2.47;1.40;;;6.40;99.90;;;;;;4973048;28;20054;-76
2021/12/19 05:29:38;;;;;;;6.25;1.52;;;6.40;99.90;;;;;;4956824;28;20046;-76
2021/12/19 05:32:04;;;;;;;;;;;6.40;99.90;;;;;;4956409;28;20086;-78
2021/12/19 05:34:30;;;;;;;2.40;1.30;;;6.40;99.90;;;;;;4923758;29;19970;-74
2021/12/19 05:45:14;;;;;;;4.13;1.90;;;6.40;99.90;;;;;;4953139;28;20054;-74
2021/12/19 05:47:48;;;;;;;7.43;2.30;;;6.40;99.90;;;;;;4973411;28;20111;-76
2021/12/19 05:50:21;;;;;;;5.30;1.83;;;6.40;99.90;;;;;;4972980;28;20055;-74
2021/12/19 05:52:48;;;;;;;7.47;2.22;;;6.40;99.90;;;;;;4954720;28;20086;-74
2021/12/19 05:55:15;;;;;;;9.00;2.75;;;6.40;99.90;;;;;;4973104;28;20058;-74
2021/12/19 05:57:42;;;;;;;7.80;2.45;;;6.40;99.90;;;;;;4955228;28;20508;-74
2021/12/19 06:00:12;;;;;;;7.57;2.67;;;6.40;99.90;;;;;;4955551;28;20459;-75
2021/12/19 06:02:40;;;;;;;12.15;3.30;;;6.40;99.90;;;;;;4970405;28;20680;-75
2021/12/19 06:05:06;;;;;;;12.32;3.47;;;6.40;99.90;;;;;;4972841;28;20061;-80
2021/12/19 06:07:32;;;;;;;11.52;3.70;;;6.40;99.90;;;;;;4971680;28;20105;-77
2021/12/19 06:09:59;;;;;;;19.13;4.28;;;6.50;99.90;;;;;;4955869;28;20054;-75
2021/12/19 06:12:25;;;;;;;14.25;3.90;;;6.50;99.90;;;;;;4954896;28;20050;-75
2021/12/19 06:14:51;;;;;;;16.85;4.65;;;6.50;99.90;;;;;;4973018;28;20066;-75
2021/12/19 06:17:17;;;;;;;;;;;6.50;99.90;;;;;;4972801;28;20399;-74
2021/12/19 06:19:43;;;;;;;15.52;4.13;;;6.50;99.90;;;;;;4955792;28;20004;-74
2021/12/19 06:22:08;;;;;;;18.15;4.18;;;6.50;99.90;;;;;;4971161;28;20057;-78
2021/12/19 06:24:35;;;;;;;17.55;4.28;;;6.50;99.90;;;;;;4955957;28;20058;-76
2021/12/19 06:27:01;;;;;;;17.42;5.18;;;6.50;99.90;;;;;;4972530;28;20405;-76
2021/12/19 06:29:28;;;;;;;16.00;4.93;;;6.50;99.90;;;;;;4951925;29;20410;-74
2021/12/19 06:31:55;;;;;;;16.83;5.13;;;6.50;99.90;;;;;;4936341;29;20133;-75
2021/12/19 06:34:20;;;;;;;14.60;4.65;;;6.50;99.90;;;;;;4948277;29;20204;-76
2021/12/19 06:36:46;;;;;;;15.90;5.57;;;6.60;99.90;;;;;;4951848;28;20150;-74
2021/12/19 06:39:12;;;;;;;14.15;4.80;;;6.50;99.90;;;;;;4951252;29;20481;-75
2021/12/19 06:41:37;;;;;;;16.55;4.95;;;6.50;99.90;;;;;;4952970;29;20051;-74
2021/12/19 06:44:04;;;;;;;25.05;5.88;;;6.50;99.90;;;;;;4957033;28;20043;-74
2021/12/19 06:46:31;;;;;;;23.63;5.43;;;6.50;99.90;;;;;;4971831;28;20058;-74
2021/12/19 06:48:57;;;;;;;15.90;5.90;;;6.60;99.90;;;;;;4939313;28;20061;-76
2021/12/19 06:51:22;;;;;;;19.02;5.72;;;6.60;99.90;;;;;;4944386;29;20039;-74
2021/12/19 06:53:48;;;;;;;20.15;5.55;;;6.50;99.90;;;;;;4935817;29;20047;-75
2021/12/19 06:56:15;;;;;;;18.30;6.78;;;6.60;99.90;;;;;;4953304;28;20051;-75
2021/12/19 06:58:40;;;;;;;;;;;6.60;99.90;;;;;;4942301;29;20047;-75
2021/12/19 07:01:06;;;;;;;19.27;7.13;;;6.60;99.90;;;;;;4951607;29;19923;-74
2021/12/19 07:03:32;;;;;;;23.75;7.32;;;6.60;99.90;;;;;;4942945;28;20051;-74
2021/12/19 07:05:57;;;;;;;21.10;7.10;;;6.60;99.90;;;;;;4954283;28;20130;-75
2021/12/19 07:08:23;;;;;;;20.77;7.07;;;6.60;99.90;;;;;;4953989;28;20058;-74
2021/12/19 07:10:49;;;;;;;19.58;6.05;;;6.60;99.90;;;;;;4971574;28;20058;-74
2021/12/19 07:13:20;;;;;;;20.65;5.68;;;6.60;99.90;;;;;;4971709;28;20475;-74
2021/12/19 07:15:49;;;;;;;17.27;6.32;;;6.60;99.90;;;;;;4970416;28;20069;-75
2021/12/19 07:18:15;;;;;;;22.58;6.75;;;6.70;99.90;;;;;;4950668;29;20144;-75
2021/12/19 07:20:42;;;;;;;26.95;7.50;;;6.70;99.90;;;;;;4935715;29;20129;-74
2021/12/19 07:23:17;;;;;;;22.08;7.95;;;6.70;99.90;;;;;;4951410;29;20568;-80
2021/12/19 07:25:43;;;;;;;26.40;8.05;;;6.70;99.90;;;;;;4952273;29;20043;-76
2021/12/19 07:28:09;;;;;;;26.63;8.45;;;6.70;99.90;;;;;;4935682;29;20474;-80
2021/12/19 07:30:36;;;;;;;;;;;6.70;99.90;;;;;;4919828;29;20055;-75
2021/12/19 07:33:07;;;;;;;29.50;7.93;;;6.70;99.90;;;;;;4951709;28;20365;-74
2021/12/19 07:35:37;;;;;;;24.08;7.90;;;6.70;99.90;;;;;;4971387;28;20051;-77
2021/12/19 07:38:04;;;;;;;26.27;7.45;;;6.60;99.90;;;;;;4970212;28;20138;-74
2021/12/19 07:40:36;;;;;;;23.55;6.75;;;6.70;99.90;;;;;;4919182;29;20047;-75
2021/12/19 07:43:10;;;;;;;18.27;6.30;;;6.70;99.90;;;;;;4935396;29;20051;-75
2021/12/19 07:45:37;;;;;;;17.48;5.10;;;6.70;99.90;;;;;;4954495;28;20121;-75
2021/12/19 07:48:04;;;;;;;18.88;5.68;;;6.70;99.90;;;;;;4955758;28;20078;-76
2021/12/19 07:50:31;;;;;;;21.15;5.85;;;6.70;99.90;;;;;;4957976;28;20043;-74
2021/12/19 07:52:57;;;;;;;22.25;5.93;;;6.80;99.90;;;;;;4957129;28;20118;-74
2021/12/19 07:55:24;;;;;;;23.98;6.30;;;6.70;99.90;;;;;;4949541;29;20087;-76
2021/12/19 07:57:50;;;;;;;25.75;6.15;;;6.70;99.90;;;;;;4943058;28;20508;-75
2021/12/19 08:00:18;;;;;;;22.15;5.70;;;6.70;99.90;;;;;;4957926;28;20054;-75
2021/12/19 08:02:45;;;;;;;31.00;6.30;;;6.70;99.90;;;;;;4974671;28;20054;-76
2021/12/19 08:05:12;;;;;;;21.98;6.32;;;6.70;99.90;;;;;;4923198;29;20087;-80
2021/12/19 08:07:39;;;;;;;13.68;5.53;;;6.70;99.90;;;;;;4921785;29;20101;-75
2021/12/19 08:12:36;;;;;;;17.95;4.68;;;6.70;99.90;;;;;;4974530;28;20057;-74
2021/12/19 08:15:04;;;;;;;13.27;4.63;;;6.60;99.90;;;;;;4941945;28;20065;-74
2021/12/19 08:17:31;;;;;;;11.50;4.28;;;6.70;99.90;;;;;;4957035;28;20047;-76
2021/12/19 08:19:57;;;;;;;14.93;3.33;;;6.70;99.90;;;;;;4975213;28;20043;-74
2021/12/19 08:22:23;;;;;;;11.80;4.03;;;6.70;99.90;;;;;;4956391;28;20606;-74
2021/12/19 08:24:50;;;;;;;18.83;4.32;;;6.70;99.90;;;;;;4975229;28;20046;-74
2021/12/19 08:27:17;;;;;;;13.45;4.03;;;6.70;99.90;;;;;;4937653;29;20522;-76
2021/12/19 08:29:42;;;;;;;20.42;4.60;;;6.70;99.90;;;;;;4974075;28;20043;-75
2021/12/19 08:32:08;;;;;;;17.02;4.75;;;6.70;99.90;;;;;;4940967;28;20545;-78
2021/12/19 08:34:35;;;;;;;12.32;3.60;;;6.70;99.90;;;;;;4974652;28;20422;-75
2021/12/19 08:37:02;;;;;;;12.57;4.80;;;6.70;99.90;;;;;;4973667;28;20089;-75
2021/12/19 08:39:28;;;;;;;15.40;4.40;;;6.70;99.90;;;;;;4972621;28;20134;-74
2021/12/19 08:41:54;;;;;;;12.20;3.75;;;6.70;99.90;;;;;;4974345;28;20070;-76
2021/12/19 08:44:21;;;;;;;16.65;4.78;;;6.80;99.90;;;;;;4957282;28;20058;-74
2021/12/19 08:46:46;;;;;;;;;;;6.80;99.90;;;;;;4974962;28;20055;-75
2021/12/19 08:49:12;;;;;;;16.08;4.18;;;6.80;99.90;;;;;;4957503;28;19981;-74
2021/12/19 08:51:39;;;;;;;18.80;4.30;;;6.80;99.90;;;;;;4953938;28;20143;-74
2021/12/19 08:54:06;;;;;;;19.95;4.90;;;6.80;99.90;;;;;;4956777;28;20109;-77
2021/12/19 08:56:32;;;;;;;22.48;4.82;;;6.90;99.90;;;;;;4973676;28;20392;-75
2021/12/19 08:58:59;;;;;;;19.42;4.53;;;6.80;99.90;;;;;;4956670;28;20098;-74
2021/12/19 09:01:25;;;;;;;16.02;4.57;;;6.80;99.90;;;;;;4956238;28;20050;-75
2021/12/19 09:03:50;;;;;;;;;;;6.80;99.90;;;;;;4941802;28;20142;-74
2021/12/19 09:06:16;;;;;;;17.35;4.50;;;6.80;99.90;;;;;;4973292;28;20041;-80
2021/12/19 09:08:42;;;;;;;17.55;4.53;;;6.90;99.90;;;;;;4940810;28;20547;-74
2021/12/19 09:11:08;;;;;;;16.20;4.50;;;6.80;99.90;;;;;;4973662;28;20097;-74
2021/12/19 09:13:33;;;;;;;18.77;4.60;;;6.80;99.90;;;;;;4940842;28;20133;-74
2021/12/19 09:16:00;;;;;;;16.45;4.35;;;6.70;99.90;;;;;;4956533;28;20145;-74
2021/12/19 09:18:30;;;;;;;20.95;5.18;;;6.80;99.90;;;;;;4973531;28;20117;-75
2021/12/19 09:20:56;;;;;;;20.30;4.97;;;6.80;99.90;;;;;;4950454;28;20101;-79
2021/12/19 09:23:22;;;;;;;16.73;5.32;;;6.80;99.90;;;;;;4955696;28;20054;-74
2021/12/19 09:25:48;;;;;;;18.90;5.47;;;6.80;99.90;;;;;;4973621;28;20061;-75
2021/12/19 09:28:14;;;;;;;18.40;4.45;;;6.80;99.90;;;;;;4974153;28;20447;-75
2021/12/19 09:30:41;;;;;;;19.60;5.15;;;6.80;99.90;;;;;;4956267;28;20051;-75
2021/12/19 09:33:07;;;;;;;22.05;5.40;;;6.80;99.90;;;;;;4955718;28;20508;-75
2021/12/19 09:35:34;;;;;;;18.25;4.93;;;6.80;99.90;;;;;;4973146;28;20058;-75
2021/12/19 09:38:01;;;;;;;26.38;5.13;;;6.80;99.90;;;;;;4972568;28;20129;-74
2021/12/19 09:40:33;;;;;;;20.83;5.53;;;6.90;99.90;;;;;;4972602;28;20132;-74
2021/12/19 09:43:31;;;;;;;17.52;4.72;;;6.80;99.90;;;;;;4973329;28;20063;-76
2021/12/19 09:45:59;;;;;;;13.60;4.00;;;6.90;99.90;;;;;;4967073;28;20061;-74
2021/12/19 09:48:26;;;;;;;17.75;4.43;;;6.90;99.90;;;;;;4940464;29;20309;-74
2021/12/19 09:50:52;;;;;;;15.02;3.90;;;6.90;99.90;;;;;;4937050;29;20066;-79
2021/12/19 09:53:18;;;;;;;20.58;3.83;;;6.90;99.90;;;;;;4936126;29;20481;-79
2021/12/19 09:55:44;;;;;;;17.38;4.00;;;7.00;99.90;;;;;;4942742;28;20061;-74
2021/12/19 09:58:10;;;;;;;21.10;4.13;;;7.00;99.90;;;;;;4921565;29;20047;-75
2021/12/19 10:00:36;;;;;;;12.68;4.00;;;7.00;99.90;;;;;;4958115;28;20051;-75
2021/12/19 10:03:02;;;;;;;13.05;4.22;;;7.00;99.90;;;;;;4951173;28;20509;-75
2021/12/19 10:05:28;;;;;;;20.20;4.07;;;7.00;99.90;;;;;;4960694;28;20058;-74
2021/12/19 10:07:56;;;;;;;13.85;3.70;;;7.00;99.90;;;;;;4954089;28;20042;-75
2021/12/19 10:11:00;;;;;;;8.45;3.30;;;7.00;99.90;;;;;;4971169;28;20076;-80
2021/12/19 10:13:34;;;;;;;15.13;3.20;;;7.10;99.90;;;;;;4923333;28;20117;-74
2021/12/19 10:16:01;;;;;;;12.93;3.00;;;7.10;99.90;;;;;;4969783;28;20043;-74
2021/12/19 10:18:26;;;;;;;;;;;7.10;99.90;;;;;;4952501;28;20093;-75
2021/12/19 10:20:58;;;;;;;16.30;3.50;;;7.20;99.90;;;;;;4969419;28;19973;-79
2021/12/19 10:23:28;;;;;;;10.65;2.78;;;7.10;99.90;;;;;;4952558;28;20082;-76
2021/12/19 10:26:03;;;;;;;10.88;2.58;;;7.10;99.90;;;;;;4955311;28;20055;-75
2021/12/19 10:28:30;;;;;;;16.88;3.10;;;7.20;99.90;;;;;;4972464;28;20043;-74
2021/12/19 10:30:58;;;;;;;13.02;3.15;;;7.10;99.90;;;;;;4972018;28;20057;-75
2021/12/19 10:33:31;;;;;;;10.65;2.83;;;7.20;99.90;;;;;;4971441;28;20083;-80
2021/12/19 10:36:04;;;;;;;16.30;3.08;;;7.20;99.90;;;;;;4940627;29;20142;-78
2021/12/19 10:38:41;;;;;;;12.45;3.60;;;7.20;99.90;;;;;;4952360;29;20179;-74
2021/12/19 10:41:17;;;;;;;14.93;4.15;;;7.20;99.90;;;;;;4942068;28;20058;-74
2021/12/19 10:44:00;;;;;;;13.73;3.38;;;7.20;99.90;;;;;;4952922;28;20050;-74
2021/12/19 10:46:32;;;;;;;15.27;3.80;;;7.20;99.90;;;;;;4939009;28;20043;-80
2021/12/19 10:48:59;;;;;;;15.45;2.75;;;7.20;99.90;;;;;;4937518;28;20489;-75
2021/12/19 10:51:25;;;;;;;15.63;3.60;;;7.20;99.90;;;;;;4947676;28;20484;-81
2021/12/19 10:53:57;;;;;;;11.25;2.92;;;7.20;99.90;;;;;;4962436;28;20103;-74
2021/12/19 10:56:34;;;;;;;12.52;3.20;;;7.20;99.90;;;;;;4968036;28;20048;-74
2021/12/19 10:59:02;;;;;;;13.05;3.33;;;7.30;99.90;;;;;;4953103;28;20042;-74
2021/12/19 11:01:37;;;;;;;14.85;3.33;;;7.20;99.90;;;;;;4950579;28;21254;-77
2021/12/19 11:04:05;;;;;;;11.32;2.83;;;7.30;99.90;;;;;;4965301;28;20051;-76
2021/12/19 11:06:50;;;;;;;12.95;3.15;;;7.20;99.90;;;;;;4964028;28;20126;-74
2021/12/19 11:09:25;;;;;;;17.90;3.58;;;7.30;99.90;;;;;;4945179;28;20055;-78
2021/12/19 11:11:56;;;;;;;12.60;2.80;;;7.30;99.90;;;;;;4946761;28;20058;-76
2021/12/19 11:14:39;;;;;;;12.73;2.90;;;7.30;99.90;;;;;;4950524;28;20134;-74
2021/12/19 11:17:14;;;;;;;7.93;2.80;;;7.30;99.90;;;;;;4961776;28;20488;-77
2021/12/19 11:19:41;;;;;;;17.57;3.57;;;7.40;99.90;;;;;;4963841;28;20046;-75
2021/12/19 11:22:08;;;;;;;14.20;3.13;;;7.40;99.90;;;;;;4947002;28;20062;-74
2021/12/19 11:24:34;;;;;;;8.35;2.30;;;7.40;99.90;;;;;;4963958;28;20051;-75
2021/12/19 11:27:02;;;;;;;11.23;2.72;;;7.40;99.90;;;;;;4969629;28;20042;-75
2021/12/19 11:29:28;;;;;;;10.90;2.28;;;7.40;99.90;;;;;;4949604;28;20074;-77
2021/12/19 11:32:00;;;;;;;10.35;2.20;;;7.40;99.90;;;;;;4969541;28;20759;-77
2021/12/19 11:34:32;;;;;;;11.38;2.25;;;7.50;99.90;;;;;;4967182;28;20349;-81
2021/12/19 11:37:02;;;;;;;8.63;2.17;;;7.50;99.90;;;;;;4948982;28;20051;-74
2021/12/19 11:39:34;;;;;;;8.10;2.20;;;7.50;99.90;;;;;;4948464;28;20053;-80
2021/12/19 11:42:01;;;;;;;13.80;2.72;;;7.50;99.90;;;;;;4966302;28;20050;-74
2021/12/19 11:44:36;;;;;;;12.48;2.40;;;7.50;99.90;;;;;;4962980;28;20053;-81
2021/12/19 11:47:08;;;;;;;10.05;2.15;;;7.50;99.90;;;;;;4947289;28;20395;-76
2021/12/19 11:49:34;;;;;;;8.90;2.55;;;7.50;99.90;;;;;;4949120;28;20073;-78
2021/12/19 11:52:22;;;;;;;15.13;3.40;;;7.60;99.90;;;;;;4935668;28;20476;-76
2021/12/19 11:55:13;;;;;;;13.13;2.13;;;7.50;99.90;;;;;;4950626;28;20480;-75
2021/12/19 11:57:40;;;;;;;13.18;2.55;;;7.50;99.90;;;;;;4951006;28;20571;-76
2021/12/19 12:00:31;;;;;;;15.25;3.03;;;7.60;99.90;;;;;;4963365;28;20542;-75
2021/12/19 12:03:11;;;;;;;13.25;2.40;;;7.60;99.90;;;;;;4934306;28;20059;-76
2021/12/19 12:05:50;;;;;;;19.45;2.10;;;7.60;99.90;;;;;;4944150;28;20113;-75
2021/12/19 12:08:19;;;;;;;13.73;2.45;;;7.60;99.90;;;;;;4968058;28;20114;-74
2021/12/19 12:10:52;;;;;;;12.38;2.20;;;7.60;99.90;;;;;;4951340;28;20062;-76
2021/12/19 12:13:36;;;;;;;10.10;2.60;;;7.60;99.90;;;;;;4952522;28;20070;-76
2021/12/19 12:16:24;;;;;;;12.32;3.15;;;7.60;99.90;;;;;;4951863;28;20113;-75
2021/12/19 12:18:56;;;;;;;14.00;2.38;;;7.50;99.90;;;;;;4968644;28;20050;-76
2021/12/19 12:21:30;;;;;;;10.98;2.40;;;7.60;99.90;;;;;;4968007;28;20055;-76
2021/12/19 12:24:15;;;;;;;12.10;2.58;;;7.60;99.90;;;;;;4958709;28;20050;-75
2021/12/19 12:26:50;;;;;;;12.55;2.88;;;7.60;99.90;;;;;;4965862;28;20061;-75
2021/12/19 12:29:16;;;;;;;22.80;3.63;;;7.60;99.90;;;;;;4961741;28;20126;-75
2021/12/19 12:31:44;;;;;;;13.23;2.65;;;7.60;99.90;;;;;;4965678;28;20074;-75
2021/12/19 12:34:11;;;;;;;12.68;2.72;;;7.60;99.90;;;;;;4948789;28;20134;-76
2021/12/19 12:36:38;;;;;;;18.42;2.70;;;7.60;99.90;;;;;;4973220;28;20092;-74
2021/12/19 12:39:09;;;;;;;13.88;2.50;;;7.60;99.90;;;;;;4957264;28;20488;-74
2021/12/19 12:44:09;;;;;;;13.30;2.63;;;7.50;99.90;;;;;;4957470;28;20051;-76
2021/12/19 12:46:35;;;;;;;11.25;2.33;;;7.60;99.90;;;;;;4957013;28;20058;-76
2021/12/19 12:49:00;;;;;;;;;;;7.60;99.90;;;;;;4954495;28;20058;-75
2021/12/19 12:51:37;;;;;;;18.02;2.50;;;7.60;99.90;;;;;;4973526;28;20277;-74
2021/12/19 12:54:07;;;;;;;14.48;2.35;;;7.60;99.90;;;;;;4957004;28;20055;-75
2021/12/19 12:56:38;;;;;;;15.15;3.20;;;7.60;99.90;;;;;;4956236;28;20509;-81
2021/12/19 12:59:05;;;;;;;11.98;2.97;;;7.60;99.90;;;;;;4974379;28;20604;-75
2021/12/19 13:01:45;;;;;;;18.20;2.90;;;7.50;99.90;;;;;;4973296;28;20508;-74
2021/12/19 13:04:25;;;;;;;14.38;3.03;;;7.60;99.90;;;;;;4974413;28;20042;-76
2021/12/19 13:07:05;;;;;;;19.30;3.47;;;7.60;99.90;;;;;;4955904;28;20077;-75
2021/12/19 13:09:43;;;;;;;21.50;3.47;;;7.60;99.90;;;;;;4940626;28;20067;-73
2021/12/19 13:12:23;;;;;;;16.90;3.47;;;7.60;99.90;;;;;;4964618;28;20043;-74
2021/12/19 13:15:05;;;;;;;19.17;3.05;;;7.60;99.90;;;;;;4939982;28;20094;-74
2021/12/19 13:17:33;;;;;;;10.40;2.58;;;7.60;99.90;;;;;;4959164;28;20050;-74
2021/12/19 13:20:02;;;;;;;17.83;3.30;;;7.50;99.90;;;;;;4944088;29;20055;-75
2021/12/19 13:22:36;;;;;;;17.08;3.10;;;7.50;99.90;;;;;;4960703;28;20190;-74
2021/12/19 13:25:17;;;;;;;13.35;3.20;;;7.60;99.90;;;;;;4973383;28;20059;-74
2021/12/19 13:27:46;;;;;;;16.77;2.92;;;7.50;99.90;;;;;;4967067;28;20050;-74
2021/12/19 13:30:29;;;;;;;19.73;3.22;;;7.50;99.90;;;;;;4968387;28;20073;-76
2021/12/19 13:33:09;;;;;;;20.30;2.90;;;7.50;99.90;;;;;;4962527;28;20043;-77
2021/12/19 13:35:40;;;;;;;15.70;3.10;;;7.50;99.90;;;;;;4951109;28;20514;-74
2021/12/19 13:38:14;;;;;;;24.98;3.08;;;7.50;99.90;;;;;;4970214;28;20049;-74
2021/12/19 13:40:51;;;;;;;22.77;3.85;;;7.50;99.90;;;;;;4946683;28;20050;-79
2021/12/19 13:43:24;;;;;;;14.35;2.45;;;7.50;99.90;;;;;;4971300;28;20057;-73
2021/12/19 13:46:07;;;;;;;12.95;2.90;;;7.50;99.90;;;;;;4965384;28;20050;-74
2021/12/19 13:48:54;;;;;;;16.42;2.83;;;7.50;99.90;;;;;;4962765;28;20517;-74
2021/12/19 13:51:27;;;;;;;20.80;3.22;;;7.50;99.90;;;;;;4955019;28;20062;-74
2021/12/19 13:53:59;;;;;;;18.10;2.83;;;7.50;99.90;;;;;;4954417;28;20050;-74
2021/12/19 13:56:29;;;;;;;18.85;3.15;;;7.50;99.90;;;;;;4957429;28;20643;-74
2021/12/19 13:58:58;;;;;;;17.70;3.63;;;7.50;99.90;;;;;;4936404;29;20050;-75
2021/12/19 14:01:27;;;;;;;20.13;3.10;;;7.50;99.90;;;;;;4953303;28;20445;-77
2021/12/19 14:04:00;;;;;;;17.90;2.67;;;7.50;99.90;;;;;;4938242;28;20050;-76
2021/12/19 14:06:31;;;;;;;16.30;3.10;;;7.50;99.90;;;;;;4939169;28;20082;-74